createdAt,value
2019-01-22T00:00:41.750Z,28.67
2019-01-22T00:03:11.443Z,29.07
2019-01-22T00:05:40.959Z,35.95
2019-01-22T00:08:10.372Z,34.48
2019-01-22T00:10:41.190Z,33.75
2019-01-22T00:13:11.078Z,29.63
2019-01-22T00:15:41.802Z,32.48
2019-01-22T00:18:11.214Z,36.60
2019-01-22T00:20:40.731Z,32.60
2019-01-22T00:23:10.215Z,33.95
2019-01-22T00:25:40.133Z,36.33
2019-01-22T00:28:09.551Z,33.70
2019-01-22T00:30:40.466Z,33.98
2019-01-22T00:33:09.963Z,39.67
2019-01-22T00:35:39.778Z,35.83
2019-01-22T00:38:09.666Z,30.10
2019-01-22T00:40:40.590Z,31.57
2019-01-22T00:43:10.145Z,34.33
2019-01-22T00:45:39.667Z,30.90
2019-01-22T00:48:09.072Z,30.55
2019-01-22T00:50:38.594Z,29.12
2019-01-22T00:53:10.145Z,31.93
2019-01-22T00:55:39.151Z,30.25
2019-01-22T00:58:08.638Z,29.10
2019-01-22T01:00:38.178Z,31.02
2019-01-22T01:03:07.658Z,27.90
2019-01-22T01:05:38.696Z,26.45
2019-01-22T01:08:08.181Z,27.35
2019-01-22T01:10:37.666Z,30.12
2019-01-22T01:13:07.115Z,27.55
2019-01-22T01:15:38.083Z,29.92
2019-01-22T01:18:07.607Z,30.00
2019-01-22T01:20:37.023Z,28.42
2019-01-22T01:23:06.544Z,32.55
2019-01-22T01:25:36.078Z,32.25
2019-01-22T01:28:05.598Z,33.53
2019-01-22T01:30:35.383Z,32.05
2019-01-22T01:33:04.906Z,33.30
2019-01-22T01:35:34.390Z,30.68
2019-01-22T01:38:03.910Z,29.98
2019-01-22T01:40:34.900Z,31.05
2019-01-22T01:43:04.424Z,32.13
2019-01-22T01:45:33.903Z,36.80
2019-01-22T01:48:03.427Z,31.27
2019-01-22T01:50:34.207Z,31.37
2019-01-22T01:53:03.659Z,32.83
2019-01-22T01:55:33.142Z,32.63
2019-01-22T01:58:02.890Z,32.45
2019-01-22T02:00:32.374Z,32.75
2019-01-22T02:03:01.895Z,33.30
2019-01-22T02:05:31.382Z,34.05
2019-01-22T02:08:00.896Z,32.30
2019-01-22T02:10:32.652Z,33.58
2019-01-22T02:13:05.495Z,33.28
2019-01-22T02:15:41.054Z,34.83
2019-01-22T02:18:16.453Z,30.70
2019-01-22T02:20:56.719Z,31.20
2019-01-22T02:23:54.931Z,32.67
2019-01-22T02:26:33.498Z,41.58
2019-01-22T02:29:17.588Z,38.60
2019-01-22T02:32:10.187Z,31.52
2019-01-22T02:34:42.958Z,30.40
2019-01-22T02:37:33.769Z,31.57
2019-01-22T02:40:12.503Z,32.03
2019-01-22T02:42:49.972Z,33.38
2019-01-22T02:45:28.673Z,37.38
2019-01-22T02:48:04.342Z,34.90
2019-01-22T02:50:47.335Z,33.08
2019-01-22T02:53:22.862Z,35.55
2019-01-22T02:55:55.727Z,33.70
2019-01-22T02:58:37.031Z,34.58
2019-01-22T03:01:25.784Z,38.13
2019-01-22T03:03:59.056Z,34.75
2019-01-22T03:06:56.203Z,34.25
2019-01-22T03:09:34.702Z,34.60
2019-01-22T03:12:13.370Z,32.90
2019-01-22T03:14:58.190Z,33.50
2019-01-22T03:17:53.335Z,30.27
2019-01-22T03:20:37.758Z,37.15
2019-01-22T03:23:28.411Z,32.60
2019-01-22T03:26:02.378Z,31.35
2019-01-22T03:28:41.321Z,29.90
2019-01-22T03:31:17.347Z,33.73
2019-01-22T03:33:50.083Z,32.50
2019-01-22T03:36:31.915Z,32.05
2019-01-22T03:39:07.358Z,35.75
2019-01-22T03:41:52.480Z,31.85
2019-01-22T03:44:27.740Z,31.65
2019-01-22T03:47:25.984Z,29.37
2019-01-22T03:50:01.636Z,28.65
2019-01-22T03:52:35.883Z,29.67
2019-01-22T03:55:17.560Z,27.77
2019-01-22T03:57:48.875Z,28.60
2019-01-22T04:00:21.319Z,28.30
2019-01-22T04:02:52.325Z,30.62
2019-01-22T04:05:21.859Z,27.50
2019-01-22T04:07:52.679Z,26.70
2019-01-22T04:10:25.268Z,24.85
2019-01-22T04:12:54.731Z,25.15
2019-01-22T04:15:29.312Z,27.22
2019-01-22T04:17:58.831Z,24.95
2019-01-22T04:20:29.629Z,26.48
2019-01-22T04:22:59.383Z,26.93
2019-01-22T04:25:32.134Z,26.82
2019-01-22T04:28:19.655Z,25.10
2019-01-22T04:31:05.694Z,26.40
2019-01-22T04:34:13.600Z,26.50
2019-01-22T04:36:55.146Z,26.50
2019-01-22T04:39:27.860Z,26.65
2019-01-22T04:42:07.147Z,26.15
2019-01-22T04:44:46.026Z,28.57
2019-01-22T04:47:38.400Z,28.62
2019-01-22T04:50:29.043Z,29.63
2019-01-22T04:53:18.470Z,27.65
2019-01-22T04:55:52.608Z,29.10
2019-01-22T04:58:25.311Z,29.60
2019-01-22T05:01:03.835Z,31.62
2019-01-22T05:03:42.697Z,28.17
2019-01-22T05:06:25.622Z,28.60
2019-01-22T05:09:22.451Z,26.80
2019-01-22T05:12:05.315Z,29.82
2019-01-22T05:14:38.020Z,29.85
2019-01-22T05:17:19.416Z,27.13
2019-01-22T05:19:54.695Z,26.65
2019-01-22T05:22:33.111Z,25.50
2019-01-22T05:25:11.615Z,28.17
2019-01-22T05:27:48.654Z,28.80
2019-01-22T05:30:24.274Z,27.80
2019-01-22T05:33:12.162Z,26.35
2019-01-22T05:35:46.135Z,25.80
2019-01-22T05:38:37.399Z,26.65
2019-01-22T05:41:11.481Z,28.30
2019-01-22T05:44:08.492Z,28.62
2019-01-22T05:47:02.287Z,27.95
2019-01-22T05:49:47.517Z,29.65
2019-01-22T05:52:35.050Z,27.82
2019-01-22T05:55:29.880Z,27.07
2019-01-22T05:58:05.197Z,27.48
2019-01-22T06:00:45.322Z,27.65
2019-01-22T06:03:18.083Z,27.60
2019-01-22T06:05:53.455Z,26.75
2019-01-22T06:08:35.289Z,26.07
2019-01-22T06:11:09.383Z,26.00
2019-01-22T06:14:02.954Z,28.87
2019-01-22T06:16:47.458Z,25.68
2019-01-22T06:19:28.878Z,26.75
2019-01-22T06:22:10.427Z,24.80
2019-01-22T06:24:57.849Z,25.92
2019-01-22T06:27:28.605Z,25.20
2019-01-22T06:30:16.213Z,24.45
2019-01-22T06:32:53.208Z,26.10
2019-01-22T06:35:28.532Z,25.17
2019-01-22T06:38:04.178Z,26.30
2019-01-22T06:40:58.039Z,24.87
2019-01-22T06:43:39.436Z,23.75
2019-01-22T06:46:16.362Z,24.07
2019-01-22T06:48:57.757Z,27.32
2019-01-22T06:51:42.447Z,24.20
2019-01-22T06:54:24.261Z,26.82
2019-01-22T06:57:30.506Z,28.65
2019-01-22T07:00:21.355Z,24.05
2019-01-22T07:02:55.432Z,22.40
2019-01-22T07:05:37.367Z,23.70
2019-01-22T07:08:18.999Z,23.02
2019-01-22T07:10:58.871Z,24.37
2019-01-22T07:13:37.365Z,25.08
2019-01-22T07:16:23.102Z,24.07
2019-01-22T07:19:04.764Z,23.52
2019-01-22T07:21:41.959Z,25.15
2019-01-22T07:24:23.337Z,23.42
2019-01-22T07:27:15.219Z,25.02
2019-01-22T07:30:02.846Z,25.80
2019-01-22T07:33:00.970Z,24.52
2019-01-22T07:35:33.822Z,23.50
2019-01-22T07:38:09.311Z,26.12
2019-01-22T07:40:44.942Z,25.75
2019-01-22T07:43:29.730Z,25.85
2019-01-22T07:46:05.239Z,24.72
2019-01-22T07:48:56.246Z,22.48
2019-01-22T07:51:33.207Z,26.73
2019-01-22T07:54:09.487Z,24.32
2019-01-22T07:56:49.122Z,26.75
2019-01-22T07:59:24.380Z,28.02
2019-01-22T08:02:09.218Z,31.93
2019-01-22T08:04:58.743Z,27.20
2019-01-22T08:07:40.238Z,27.52
2019-01-22T08:10:29.423Z,30.77
2019-01-22T08:13:11.020Z,26.33
2019-01-22T08:16:01.928Z,27.50
2019-01-22T08:18:40.692Z,25.62
2019-01-22T08:21:40.151Z,24.18
2019-01-22T08:24:21.568Z,30.05
2019-01-22T08:27:03.038Z,27.13
2019-01-22T08:29:47.079Z,26.52
2019-01-22T08:32:26.928Z,24.80
2019-01-22T08:35:16.735Z,26.05
2019-01-22T08:37:53.869Z,25.90
2019-01-22T08:40:44.620Z,26.90
2019-01-22T08:43:20.206Z,26.95
2019-01-22T08:46:05.054Z,26.33
2019-01-22T08:48:40.543Z,27.50
2019-01-22T08:51:37.024Z,29.65
2019-01-22T08:54:12.568Z,30.10
2019-01-22T08:57:04.725Z,29.35
2019-01-22T08:59:45.798Z,28.17
2019-01-22T09:02:40.231Z,26.12
2019-01-22T09:05:15.578Z,26.95
2019-01-22T09:08:01.564Z,30.30
2019-01-22T09:11:05.427Z,28.47
2019-01-22T09:13:53.158Z,27.50
2019-01-22T09:16:35.603Z,28.20
2019-01-22T09:19:11.008Z,28.90
2019-01-22T09:22:00.187Z,28.42
2019-01-22T09:24:48.054Z,29.48
2019-01-22T09:27:32.786Z,28.80
2019-01-22T09:30:08.415Z,29.02
2019-01-22T09:32:42.635Z,27.82
2019-01-22T09:35:39.425Z,28.00
2019-01-22T09:38:10.159Z,28.23
2019-01-22T09:40:39.747Z,27.00
2019-01-22T09:43:09.174Z,26.62
2019-01-22T09:45:39.899Z,25.43
2019-01-22T09:48:09.318Z,25.62
2019-01-22T09:50:38.771Z,25.68
2019-01-22T09:53:08.191Z,29.72
2019-01-22T09:55:37.706Z,28.57
2019-01-22T09:58:07.190Z,27.40
2019-01-22T10:00:38.123Z,27.35
2019-01-22T10:03:07.538Z,28.07
2019-01-22T10:05:37.063Z,26.07
2019-01-22T10:08:06.475Z,26.23
2019-01-22T10:10:35.995Z,26.60
2019-01-22T10:13:05.410Z,26.12
2019-01-22T10:15:36.403Z,24.92
2019-01-22T10:18:05.898Z,27.80
2019-01-22T10:20:35.414Z,26.60
2019-01-22T10:23:04.975Z,26.37
2019-01-22T10:25:34.500Z,26.68
2019-01-22T10:28:04.384Z,24.67
2019-01-22T10:30:34.254Z,25.65
2019-01-22T10:33:04.134Z,25.35
2019-01-22T10:35:34.975Z,24.18
2019-01-22T10:38:04.394Z,27.75
2019-01-22T10:40:33.889Z,28.65
2019-01-22T10:43:09.158Z,25.80
2019-01-22T10:45:35.959Z,28.75
2019-01-22T10:48:05.477Z,26.65
2019-01-22T10:50:36.250Z,26.02
2019-01-22T10:53:05.776Z,26.73
2019-01-22T10:55:36.413Z,26.37
2019-01-22T10:58:08.810Z,25.80
2019-01-22T11:00:38.319Z,26.95
2019-01-22T11:03:08.914Z,25.43
2019-01-22T11:05:39.689Z,25.57
2019-01-22T11:08:09.139Z,28.17
2019-01-22T11:10:38.627Z,28.75
2019-01-22T11:13:08.075Z,27.10
2019-01-22T11:15:39.067Z,26.52
2019-01-22T11:18:08.514Z,27.85
2019-01-22T11:20:38.009Z,26.62
2019-01-22T11:23:07.469Z,26.65
2019-01-22T11:25:43.290Z,27.80
2019-01-22T11:28:08.183Z,25.17
2019-01-22T11:30:38.873Z,25.25
2019-01-22T11:33:08.311Z,27.52
2019-01-22T11:35:37.731Z,27.27
2019-01-22T11:38:12.473Z,25.90
2019-01-22T11:40:42.128Z,26.68
2019-01-22T11:43:11.570Z,27.62
2019-01-22T11:45:41.067Z,27.87
2019-01-22T11:48:10.514Z,27.60
2019-01-22T11:50:41.495Z,27.50
2019-01-22T11:53:10.955Z,28.10
2019-01-22T11:55:40.453Z,27.35
2019-01-22T11:58:09.930Z,30.20
2019-01-22T12:00:41.094Z,28.47
2019-01-22T12:03:10.505Z,28.55
2019-01-22T12:05:40.028Z,27.15
2019-01-22T12:08:09.511Z,27.17
2019-01-22T12:10:38.964Z,27.67
2019-01-22T12:13:08.454Z,29.42
2019-01-22T12:15:37.899Z,28.30
2019-01-22T12:18:07.319Z,26.77
2019-01-22T12:20:40.878Z,25.85
2019-01-22T12:23:10.364Z,28.57
2019-01-22T12:25:39.890Z,25.88
2019-01-22T12:28:09.378Z,25.25
2019-01-22T12:30:40.295Z,28.35
2019-01-22T12:33:09.790Z,29.20
2019-01-22T12:35:39.301Z,26.25
2019-01-22T12:38:08.786Z,25.37
2019-01-22T12:40:39.602Z,27.55
2019-01-22T12:43:09.092Z,28.57
2019-01-22T12:45:39.375Z,25.12
2019-01-22T12:48:08.876Z,27.37
2019-01-22T12:50:39.293Z,26.60
2019-01-22T12:53:08.785Z,26.50
2019-01-22T12:55:39.714Z,26.37
2019-01-22T12:58:09.133Z,28.83
2019-01-22T13:00:38.744Z,26.27
2019-01-22T13:03:08.235Z,28.23
2019-01-22T13:05:49.707Z,29.18
2019-01-22T13:08:19.121Z,25.88
2019-01-22T13:10:50.139Z,38.50
2019-01-22T13:13:19.647Z,26.00
2019-01-22T13:15:50.566Z,23.57
2019-01-22T13:18:19.987Z,24.40
2019-01-22T13:20:49.431Z,25.70
2019-01-22T13:23:18.839Z,24.30
2019-01-22T13:25:49.750Z,27.13
2019-01-22T13:28:19.167Z,26.02
2019-01-22T13:30:48.713Z,26.75
2019-01-22T13:33:18.138Z,23.77
2019-01-22T13:35:48.861Z,24.98
2019-01-22T13:38:18.271Z,26.90
2019-01-22T13:40:47.755Z,24.72
2019-01-22T13:43:17.216Z,23.60
2019-01-22T13:45:47.894Z,26.23
2019-01-22T13:48:17.343Z,26.27
2019-01-22T13:50:46.758Z,24.50
2019-01-22T13:53:16.198Z,24.80
2019-01-22T13:55:47.078Z,25.37
2019-01-22T13:58:16.533Z,27.20
2019-01-22T14:00:46.012Z,25.90
2019-01-22T14:03:15.457Z,24.43
2019-01-22T14:05:44.947Z,23.80
2019-01-22T14:08:14.395Z,26.45
2019-01-22T14:10:43.879Z,25.65
2019-01-22T14:13:13.398Z,28.95
2019-01-22T14:15:42.891Z,29.40
2019-01-22T14:18:12.411Z,23.90
2019-01-22T14:20:43.295Z,24.47
2019-01-22T14:23:12.744Z,26.55
2019-01-22T14:25:42.230Z,26.02
2019-01-22T14:28:11.675Z,25.75
2019-01-22T14:30:41.169Z,24.95
2019-01-22T14:33:10.616Z,21.97
2019-01-22T14:35:41.507Z,25.30
2019-01-22T14:38:11.027Z,23.85
2019-01-22T14:40:42.859Z,25.50
2019-01-22T14:43:12.478Z,23.47
2019-01-22T14:45:43.363Z,24.52
2019-01-22T14:48:12.934Z,23.30
2019-01-22T14:50:43.819Z,23.12
2019-01-22T14:53:14.757Z,26.33
2019-01-22T14:55:44.168Z,24.95
2019-01-22T14:58:13.592Z,26.02
2019-01-22T15:00:43.039Z,26.62
2019-01-22T15:03:12.531Z,25.32
2019-01-22T15:05:43.554Z,26.00
2019-01-22T15:08:13.031Z,25.82
2019-01-22T15:10:42.544Z,27.93
2019-01-22T15:13:12.050Z,26.85
2019-01-22T15:15:42.882Z,25.40
2019-01-22T15:18:12.303Z,25.45
2019-01-22T15:20:43.226Z,24.60
2019-01-22T15:23:12.730Z,23.57
2019-01-22T15:25:43.444Z,25.77
2019-01-22T15:28:14.632Z,22.98
2019-01-22T15:30:45.454Z,24.67
2019-01-22T15:33:15.736Z,26.77
2019-01-22T15:35:45.372Z,27.15
2019-01-22T15:38:16.330Z,25.40
2019-01-22T15:40:47.240Z,25.45
2019-01-22T15:43:16.660Z,24.18
2019-01-22T15:45:47.384Z,24.50
2019-01-22T15:48:16.871Z,26.90
2019-01-22T15:50:47.950Z,25.57
2019-01-22T15:53:17.370Z,27.27
2019-01-22T15:55:48.148Z,27.30
2019-01-22T15:58:17.847Z,29.05
2019-01-22T16:00:47.303Z,26.75
2019-01-22T16:03:16.723Z,25.50
2019-01-22T16:05:47.436Z,30.35
2019-01-22T16:08:16.846Z,28.87
2019-01-22T16:10:47.845Z,25.65
2019-01-22T16:13:17.270Z,25.60
2019-01-22T16:15:47.773Z,27.87
2019-01-22T16:18:17.202Z,32.35
2019-01-22T16:20:46.655Z,30.68
2019-01-22T16:23:16.202Z,36.00
2019-01-22T16:25:45.615Z,31.02
2019-01-22T16:28:15.924Z,30.02
2019-01-22T16:30:46.838Z,29.52
2019-01-22T16:33:17.127Z,29.98
2019-01-22T16:35:46.570Z,32.00
2019-01-22T16:38:16.559Z,31.55
2019-01-22T16:40:47.410Z,28.55
2019-01-22T16:43:17.009Z,28.57
2019-01-22T16:45:47.948Z,28.98
2019-01-22T16:48:17.434Z,29.52
2019-01-22T16:50:48.291Z,30.97
2019-01-22T16:53:17.892Z,30.30
2019-01-22T16:55:47.411Z,28.00
2019-01-22T16:58:16.863Z,29.20
2019-01-22T17:00:46.368Z,26.62
2019-01-22T17:03:16.149Z,27.25
2019-01-22T17:05:45.598Z,26.80
2019-01-22T17:08:15.215Z,26.90
2019-01-22T17:10:44.699Z,26.97
2019-01-22T17:13:14.235Z,25.70
2019-01-22T17:15:44.927Z,28.00
2019-01-22T17:18:16.047Z,31.75
2019-01-22T17:20:47.930Z,29.75
2019-01-22T17:23:16.927Z,28.07
2019-01-22T17:25:47.620Z,28.60
2019-01-22T17:28:17.064Z,32.25
2019-01-22T17:30:46.828Z,29.30
2019-01-22T17:33:19.415Z,32.05
2019-01-22T17:35:49.107Z,32.00
2019-01-22T17:38:18.564Z,32.93
2019-01-22T17:40:48.050Z,34.40
2019-01-22T17:43:17.495Z,35.25
2019-01-22T17:45:46.916Z,34.75
2019-01-22T17:48:16.842Z,32.08
2019-01-22T17:50:47.701Z,36.40
2019-01-22T17:53:17.342Z,33.55
2019-01-22T17:55:46.855Z,31.00
2019-01-22T17:58:16.300Z,33.90
2019-01-22T18:00:45.782Z,33.55
2019-01-22T18:03:15.287Z,35.23
2019-01-22T18:05:46.086Z,31.25
2019-01-22T18:08:15.603Z,33.25
2019-01-22T18:10:45.201Z,34.70
2019-01-22T18:13:16.396Z,35.43
2019-01-22T18:15:45.911Z,32.75
2019-01-22T18:18:15.863Z,31.87
2019-01-22T18:20:46.779Z,31.02
2019-01-22T18:23:16.311Z,32.45
2019-01-22T18:25:45.835Z,32.58
2019-01-22T18:28:15.318Z,29.75
2019-01-22T18:30:46.212Z,35.10
2019-01-22T18:33:15.636Z,34.00
2019-01-22T18:35:46.434Z,31.12
2019-01-22T18:38:16.087Z,28.95
2019-01-22T18:40:46.806Z,28.35
2019-01-22T18:43:16.295Z,29.65
2019-01-22T18:45:45.756Z,29.72
2019-01-22T18:48:15.516Z,30.00
2019-01-22T18:50:45.139Z,31.42
2019-01-22T18:53:14.647Z,30.92
2019-01-22T18:55:44.282Z,33.25
2019-01-22T18:58:13.757Z,28.62
2019-01-22T19:00:44.469Z,30.97
2019-01-22T19:03:13.958Z,32.15
2019-01-22T19:05:43.492Z,30.30
2019-01-22T19:08:12.907Z,31.40
2019-01-22T19:10:43.628Z,33.85
2019-01-22T19:13:13.131Z,33.53
2019-01-22T19:15:43.784Z,28.40
2019-01-22T19:18:13.246Z,26.82
2019-01-22T19:20:43.974Z,31.05
2019-01-22T19:23:13.462Z,30.60
2019-01-22T19:25:44.513Z,31.73
2019-01-22T19:28:13.993Z,36.10
2019-01-22T19:30:43.488Z,33.02
2019-01-22T19:33:12.939Z,31.42
2019-01-22T19:35:43.636Z,30.60
2019-01-22T19:38:13.088Z,31.30
2019-01-22T19:40:43.866Z,31.48
2019-01-22T19:43:13.393Z,28.12
2019-01-22T19:45:44.078Z,28.95
2019-01-22T19:48:13.591Z,29.72
2019-01-22T19:50:43.070Z,25.12
2019-01-22T19:53:12.597Z,32.83
2019-01-22T19:55:42.076Z,34.95
2019-01-22T19:58:11.577Z,34.98
2019-01-22T20:00:41.084Z,30.95
2019-01-22T20:03:10.710Z,35.33
2019-01-22T20:05:40.189Z,34.50
2019-01-22T20:08:09.879Z,33.20
2019-01-22T20:10:39.302Z,32.33
2019-01-22T20:13:08.815Z,32.35
2019-01-22T20:15:39.604Z,32.98
2019-01-22T20:18:09.119Z,38.02
2019-01-22T20:20:38.614Z,36.20
2019-01-22T20:23:08.126Z,32.83
2019-01-22T20:25:38.918Z,33.73
2019-01-22T20:28:08.431Z,35.83
2019-01-22T20:30:39.838Z,34.13
2019-01-22T20:33:09.026Z,32.67
2019-01-22T20:35:39.919Z,31.25
2019-01-22T20:38:09.382Z,32.50
2019-01-22T20:40:38.862Z,29.50
2019-01-22T20:43:08.411Z,32.00
2019-01-22T20:45:37.915Z,29.15
2019-01-22T20:48:07.371Z,30.97
2019-01-22T20:50:36.852Z,32.45
2019-01-22T20:53:06.273Z,30.25
2019-01-22T20:55:37.193Z,31.42
2019-01-22T20:58:06.608Z,30.12
2019-01-22T21:00:37.418Z,29.82
2019-01-22T21:03:06.916Z,31.87
2019-01-22T21:05:36.432Z,28.83
2019-01-22T21:08:05.959Z,30.88
2019-01-22T21:10:36.482Z,30.00
2019-01-22T21:13:06.054Z,34.65
2019-01-22T21:15:36.831Z,29.60
2019-01-22T21:18:06.314Z,31.65
2019-01-22T21:20:35.762Z,28.85
2019-01-22T21:23:05.250Z,34.73
2019-01-22T21:25:34.763Z,32.28
2019-01-22T21:28:04.242Z,39.18
2019-01-22T21:30:36.067Z,34.43
2019-01-22T21:33:06.228Z,28.27
2019-01-22T21:35:37.055Z,34.53
2019-01-22T21:38:06.618Z,28.73
2019-01-22T21:40:37.392Z,32.13
2019-01-22T21:43:06.885Z,31.50
2019-01-22T21:45:36.407Z,32.03
2019-01-22T21:48:05.991Z,34.48
2019-01-22T21:50:35.645Z,35.58
2019-01-22T21:53:05.887Z,31.15
2019-01-22T21:55:36.605Z,31.90
2019-01-22T21:58:08.585Z,36.40
2019-01-22T22:00:37.097Z,31.37
2019-01-22T22:03:06.610Z,33.63
2019-01-22T22:05:36.215Z,34.40
2019-01-22T22:08:05.815Z,34.15
2019-01-22T22:10:36.631Z,32.13
2019-01-22T22:13:06.056Z,34.90
2019-01-22T22:15:35.502Z,31.33
2019-01-22T22:18:05.267Z,30.55
2019-01-22T22:20:36.207Z,35.45
2019-01-22T22:23:05.694Z,31.55
2019-01-22T22:25:36.431Z,35.52
2019-01-22T22:28:05.863Z,29.48
2019-01-22T22:30:36.851Z,33.13
2019-01-22T22:33:06.276Z,30.85
2019-01-22T22:35:37.000Z,30.92
2019-01-22T22:38:06.447Z,32.80
2019-01-22T22:40:35.873Z,31.73
2019-01-22T22:43:05.315Z,31.20
2019-01-22T22:45:36.130Z,31.27
2019-01-22T22:48:05.660Z,34.65
2019-01-22T22:50:35.078Z,35.52
2019-01-22T22:53:04.518Z,29.18
2019-01-22T22:55:35.219Z,30.85
2019-01-22T22:58:04.743Z,33.48
2019-01-22T23:00:55.683Z,31.93
2019-01-22T23:03:25.418Z,33.23
2019-01-22T23:05:54.899Z,35.13
2019-01-22T23:08:24.495Z,35.75
2019-01-22T23:10:55.683Z,34.10
2019-01-22T23:13:25.987Z,32.08
2019-01-22T23:15:55.618Z,35.80
2019-01-22T23:18:25.133Z,31.95
2019-01-22T23:20:55.935Z,31.60
2019-01-22T23:23:25.455Z,31.57
2019-01-22T23:25:56.859Z,30.65
2019-01-22T23:28:28.989Z,33.65
2019-01-22T23:30:57.340Z,30.55
2019-01-22T23:33:26.794Z,33.53
2019-01-22T23:35:56.217Z,36.65
2019-01-22T23:38:25.665Z,31.77
2019-01-22T23:40:56.447Z,34.13
2019-01-22T23:43:27.438Z,33.92
2019-01-22T23:45:56.862Z,33.30
2019-01-22T23:48:26.387Z,33.02
2019-01-22T23:50:57.714Z,35.08
2019-01-22T23:53:27.171Z,34.40
2019-01-22T23:55:57.962Z,36.93
2019-01-22T23:58:27.481Z,36.05
